createdAt,value
2022-11-05T00:03:07.661Z,100035.00
2022-11-05T00:09:30.005Z,100025.00
2022-11-05T00:15:51.074Z,100042.00
2022-11-05T00:22:11.763Z,100034.00
2022-11-05T00:28:14.055Z,100031.00
2022-11-05T00:34:16.179Z,100049.00
2022-11-05T00:40:18.435Z,100050.00
2022-11-05T00:46:20.563Z,100048.00
2022-11-05T00:52:41.098Z,100054.00
2022-11-05T00:58:43.120Z,100035.00
2022-11-05T01:04:45.584Z,100035.00
2022-11-05T01:10:51.440Z,100025.00
2022-11-05T01:16:53.734Z,100018.00
2022-11-05T01:22:56.030Z,100015.00
2022-11-05T01:29:00.732Z,100009.00
2022-11-05T01:35:05.033Z,100012.00
2022-11-05T01:41:07.509Z,100013.00
2022-11-05T01:47:25.471Z,100001.00
2022-11-05T01:53:33.898Z,100011.00
2022-11-05T01:59:41.316Z,100004.00
2022-11-05T02:05:44.765Z,99997.00
2022-11-05T02:11:47.931Z,99994.00
2022-11-05T02:18:15.858Z,99987.00
2022-11-05T02:24:53.835Z,100002.00
2022-11-05T02:31:01.829Z,99992.00
2022-11-05T02:37:07.169Z,99998.00
2022-11-05T02:43:25.024Z,99999.00
2022-11-05T02:49:48.342Z,100016.00
2022-11-05T02:56:16.624Z,100009.00
2022-11-05T03:02:18.707Z,100015.00
2022-11-05T03:08:57.459Z,99996.00
2022-11-05T03:15:09.159Z,100002.00
2022-11-05T03:21:21.874Z,99998.00
2022-11-05T03:27:28.191Z,100001.00
2022-11-05T03:33:33.654Z,99988.00
2022-11-05T03:39:46.283Z,100003.00
2022-11-05T03:45:56.336Z,100000.00
2022-11-05T03:52:22.220Z,99998.00
2022-11-05T03:58:25.154Z,99986.00
2022-11-05T04:04:27.283Z,99999.00
2022-11-05T04:10:48.268Z,100005.00
2022-11-05T04:17:09.221Z,100012.00
2022-11-05T04:23:29.948Z,100007.00
2022-11-05T04:29:50.707Z,100013.00
2022-11-05T04:35:52.927Z,100018.00
2022-11-05T04:41:55.173Z,100018.00
2022-11-05T04:47:57.783Z,100016.00
2022-11-05T04:53:59.902Z,100003.00
2022-11-05T05:00:02.323Z,100001.00
2022-11-05T05:06:04.635Z,100015.00
2022-11-05T05:12:08.609Z,100015.00
2022-11-05T05:18:10.767Z,100007.00
2022-11-05T05:24:17.738Z,100015.00
2022-11-05T05:30:19.861Z,100030.00
2022-11-05T05:36:22.968Z,100035.00
2022-11-05T05:42:25.527Z,100044.00
2022-11-05T05:48:27.715Z,100070.00
2022-11-05T05:54:32.854Z,100080.00
2022-11-05T06:00:36.775Z,100091.00
2022-11-05T06:06:38.936Z,100091.00
2022-11-05T06:12:41.581Z,100094.00
2022-11-05T06:18:44.126Z,100111.00
2022-11-05T06:24:46.298Z,100108.00
2022-11-05T06:30:52.173Z,100118.00
2022-11-05T06:36:54.159Z,100113.00
2022-11-05T06:42:56.475Z,100121.00
2022-11-05T06:48:58.646Z,100107.00
2022-11-05T06:55:00.937Z,100100.00
2022-11-05T07:01:08.893Z,100095.00
2022-11-05T07:07:11.612Z,100104.00
2022-11-05T07:13:14.106Z,100105.00
2022-11-05T07:19:16.538Z,100114.00
2022-11-05T07:25:18.877Z,100113.00
2022-11-05T07:31:21.136Z,100100.00
2022-11-05T07:37:23.510Z,100094.00
2022-11-05T07:43:26.037Z,100095.00
2022-11-05T07:49:28.533Z,100105.00
2022-11-05T07:55:31.092Z,100095.00
2022-11-05T08:01:33.386Z,100110.00
2022-11-05T08:07:36.457Z,100106.00
2022-11-05T08:13:39.289Z,100098.00
2022-11-05T08:19:41.172Z,100089.00
2022-11-05T08:25:47.196Z,100091.00
2022-11-05T08:31:49.280Z,100085.00
2022-11-05T08:37:51.214Z,100051.00
2022-11-05T08:43:56.496Z,100021.00
2022-11-05T08:49:58.417Z,100042.00
2022-11-05T08:56:00.786Z,100046.00
2022-11-05T09:02:03.098Z,100057.00
2022-11-05T09:08:10.230Z,100067.00
2022-11-05T09:14:12.531Z,100079.00
2022-11-05T09:20:14.691Z,100067.00
2022-11-05T09:26:16.917Z,100085.00
2022-11-05T09:32:19.578Z,100084.00
2022-11-05T09:38:21.711Z,100079.00
2022-11-05T09:44:38.107Z,100085.00
2022-11-05T09:50:43.513Z,100079.00
2022-11-05T09:56:46.685Z,100067.00
2022-11-05T10:02:52.754Z,100070.00
2022-11-05T10:09:36.238Z,100075.00
2022-11-05T10:15:44.045Z,100083.00
2022-11-05T10:22:05.977Z,100068.00
2022-11-05T10:28:11.666Z,100079.00
2022-11-05T10:34:17.934Z,100067.00
2022-11-05T10:40:42.888Z,100069.00
2022-11-05T10:46:50.169Z,100067.00
2022-11-05T10:52:52.463Z,100048.00
2022-11-05T10:58:57.537Z,100054.00
2022-11-05T11:04:59.957Z,100049.00
2022-11-05T11:11:11.772Z,100037.00
2022-11-05T11:17:30.510Z,100047.00
2022-11-05T11:23:39.067Z,100032.00
2022-11-05T11:29:48.981Z,99968.00
2022-11-05T11:35:51.766Z,99983.00
2022-11-05T11:41:57.425Z,99964.00
2022-11-05T11:48:03.043Z,99981.00
2022-11-05T11:54:05.745Z,100026.00
2022-11-05T12:00:10.053Z,100033.00
2022-11-05T12:06:20.847Z,100027.00
2022-11-05T12:12:46.558Z,100039.00
2022-11-05T12:19:23.274Z,100045.00
2022-11-05T12:25:38.024Z,100026.00
2022-11-05T12:32:06.162Z,100037.00
2022-11-05T12:38:19.959Z,100046.00
2022-11-05T12:44:42.499Z,100040.00
2022-11-05T12:50:50.170Z,100040.00
2022-11-05T12:56:56.058Z,100050.00
2022-11-05T13:03:10.146Z,100048.00
2022-11-05T13:09:38.729Z,100055.00
2022-11-05T13:15:49.621Z,100059.00
2022-11-05T13:22:00.624Z,100060.00
2022-11-05T13:28:23.594Z,100055.00
2022-11-05T13:34:26.097Z,100057.00
2022-11-05T13:40:37.392Z,100060.00
2022-11-05T13:47:04.986Z,100070.00
2022-11-05T13:53:22.252Z,100079.00
2022-11-05T13:59:41.626Z,100094.00
2022-11-05T14:05:44.428Z,100106.00
2022-11-05T14:11:54.054Z,100097.00
2022-11-05T14:17:57.955Z,100102.00
2022-11-05T14:24:21.377Z,100121.00
2022-11-05T14:30:47.770Z,100124.00
2022-11-05T14:37:11.934Z,100112.00
2022-11-05T14:43:14.142Z,100123.00
2022-11-05T14:49:21.820Z,100114.00
2022-11-05T14:55:34.983Z,100128.00
2022-11-05T15:01:43.043Z,100128.00
2022-11-05T15:07:45.209Z,100137.00
2022-11-05T15:13:56.220Z,100135.00
2022-11-05T15:20:10.326Z,100141.00
2022-11-05T15:26:34.478Z,100143.00
2022-11-05T15:32:38.583Z,100146.00
2022-11-05T15:38:56.692Z,100160.00
2022-11-05T15:45:04.678Z,100161.00
2022-11-05T15:51:06.985Z,100169.00
2022-11-05T15:57:24.662Z,100176.00
2022-11-05T16:03:31.877Z,100158.00
2022-11-05T16:09:36.939Z,100170.00
2022-11-05T16:15:39.039Z,100170.00
2022-11-05T16:21:54.914Z,100186.00
2022-11-05T16:28:01.282Z,100191.00
2022-11-05T16:34:03.388Z,100201.00
2022-11-05T16:40:21.096Z,100202.00
2022-11-05T16:46:25.907Z,100211.00
2022-11-05T16:52:28.049Z,100227.00
2022-11-05T16:58:30.550Z,100230.00
2022-11-05T17:04:32.707Z,100235.00
2022-11-05T17:10:35.127Z,100235.00
2022-11-05T17:16:38.151Z,100244.00
2022-11-05T17:22:40.141Z,100247.00
2022-11-05T17:28:42.296Z,100251.00
2022-11-05T17:34:44.317Z,100242.00
2022-11-05T17:40:46.500Z,100244.00
2022-11-05T17:46:48.529Z,100254.00
2022-11-05T17:52:50.778Z,100247.00
2022-11-05T17:58:52.911Z,100255.00
2022-11-05T18:04:54.995Z,100255.00
2022-11-05T18:10:57.048Z,100274.00
2022-11-05T18:17:00.422Z,100284.00
2022-11-05T18:23:02.440Z,100272.00
2022-11-05T18:29:05.426Z,100272.00
2022-11-05T18:35:07.786Z,100280.00
2022-11-05T18:41:09.897Z,100290.00
2022-11-05T18:47:12.301Z,100313.00
2022-11-05T18:53:14.418Z,100330.00
2022-11-05T19:05:40.814Z,100311.00
2022-11-05T19:11:43.198Z,100337.00
2022-11-05T19:17:45.579Z,100335.00
2022-11-05T19:23:47.998Z,100325.00
2022-11-05T19:29:50.214Z,100340.00
2022-11-05T19:35:52.338Z,100335.00
2022-11-05T19:41:57.699Z,100344.00
2022-11-05T19:48:04.808Z,100353.00
2022-11-05T19:54:07.917Z,100349.00
2022-11-05T20:00:10.421Z,100352.00
2022-11-05T20:06:28.776Z,100355.00
2022-11-05T20:12:31.033Z,100349.00
2022-11-05T20:18:33.492Z,100363.00
2022-11-05T20:24:35.849Z,100357.00
2022-11-05T20:30:39.641Z,100350.00
2022-11-05T20:36:41.754Z,100361.00
2022-11-05T20:42:44.124Z,100370.00
2022-11-05T20:48:46.551Z,100360.00
2022-11-05T20:54:48.542Z,100368.00
2022-11-05T21:00:55.880Z,100369.00
2022-11-05T21:06:58.359Z,100370.00
2022-11-05T21:13:00.391Z,100372.00
2022-11-05T21:19:03.130Z,100375.00
2022-11-05T21:25:06.078Z,100388.00
2022-11-05T21:31:09.082Z,100391.00
2022-11-05T21:37:11.748Z,100390.00
2022-11-05T21:43:14.023Z,100384.00
2022-11-05T21:49:16.034Z,100394.00
2022-11-05T21:55:36.694Z,100402.00
2022-11-05T22:01:38.985Z,100402.00
2022-11-05T22:07:41.114Z,100393.00
2022-11-05T22:13:43.345Z,100401.00
2022-11-05T22:19:45.471Z,100394.00
2022-11-05T22:25:47.452Z,100392.00
2022-11-05T22:31:49.795Z,100388.00
2022-11-05T22:37:51.828Z,100397.00
2022-11-05T22:43:54.038Z,100398.00
2022-11-05T22:49:56.021Z,100395.00
2022-11-05T22:55:58.402Z,100399.00
2022-11-05T23:02:05.164Z,100396.00
2022-11-05T23:08:29.476Z,100403.00
2022-11-05T23:14:31.602Z,100406.00
2022-11-05T23:20:52.099Z,100406.00
2022-11-05T23:26:54.208Z,100398.00
2022-11-05T23:32:56.529Z,100402.00
2022-11-05T23:38:58.688Z,100402.00
2022-11-05T23:45:19.125Z,100393.00
2022-11-05T23:51:21.300Z,100416.00
2022-11-05T23:57:23.298Z,100405.00
